createdAt,value
2019-01-17T00:00:28.715Z,0.00
2019-01-17T00:01:28.699Z,0.00
2019-01-17T00:02:28.673Z,0.00
2019-01-17T00:03:28.646Z,0.00
2019-01-17T00:04:28.623Z,0.00
2019-01-17T00:05:28.597Z,0.00
2019-01-17T00:06:28.575Z,0.00
2019-01-17T00:07:28.552Z,0.00
2019-01-17T00:08:28.530Z,0.00
2019-01-17T00:09:28.508Z,0.00
2019-01-17T00:10:28.489Z,0.00
2019-01-17T00:11:28.459Z,0.00
2019-01-17T00:12:28.437Z,0.00
2019-01-17T00:13:28.421Z,0.00
2019-01-17T00:14:28.395Z,0.00
2019-01-17T00:15:28.367Z,0.00
2019-01-17T00:16:28.351Z,0.00
2019-01-17T00:17:28.329Z,0.00
2019-01-17T00:18:28.299Z,0.00
2019-01-17T00:19:28.274Z,0.00
2019-01-17T00:20:28.259Z,0.00
2019-01-17T00:21:28.236Z,0.00
2019-01-17T00:22:28.210Z,0.00
2019-01-17T00:23:28.182Z,0.00
2019-01-17T00:24:28.167Z,0.00
2019-01-17T00:25:28.145Z,0.00
2019-01-17T00:26:28.121Z,0.00
2019-01-17T00:27:28.089Z,0.00
2019-01-17T00:28:28.073Z,0.00
2019-01-17T00:29:28.047Z,0.00
2019-01-17T00:30:28.026Z,0.00
2019-01-17T00:31:28.004Z,0.00
2019-01-17T00:32:27.981Z,0.00
2019-01-17T00:33:27.956Z,0.00
2019-01-17T00:34:27.933Z,0.00
2019-01-17T00:35:27.911Z,0.00
2019-01-17T00:36:27.886Z,0.00
2019-01-17T00:37:27.857Z,0.00
2019-01-17T00:38:27.834Z,0.00
2019-01-17T00:39:27.819Z,0.00
2019-01-17T00:40:27.797Z,0.00
2019-01-17T00:41:27.768Z,0.00
2019-01-17T00:42:27.749Z,0.00
2019-01-17T00:43:27.720Z,0.00
2019-01-17T00:44:27.701Z,0.00
2019-01-17T00:45:27.675Z,0.00
2019-01-17T00:46:27.657Z,0.00
2019-01-17T00:47:27.630Z,0.00
2019-01-17T00:48:27.610Z,0.00
2019-01-17T00:49:27.584Z,0.00
2019-01-17T00:50:27.562Z,0.00
2019-01-17T00:51:27.534Z,0.00
2019-01-17T00:52:27.518Z,0.00
2019-01-17T00:53:27.495Z,0.00
2019-01-17T00:54:27.469Z,0.00
2019-01-17T00:55:27.446Z,0.00
2019-01-17T00:56:27.425Z,0.00
2019-01-17T00:57:27.397Z,0.00
2019-01-17T00:58:27.372Z,0.00
2019-01-17T00:59:27.349Z,0.00
2019-01-17T01:00:27.333Z,0.00
2019-01-17T01:01:27.301Z,0.00
2019-01-17T01:02:27.279Z,0.00
2019-01-17T01:03:27.256Z,0.00
2019-01-17T01:04:27.260Z,0.00
2019-01-17T01:05:27.215Z,0.00
2019-01-17T01:06:27.186Z,0.00
2019-01-17T01:07:27.165Z,0.00
2019-01-17T01:08:27.147Z,0.00
2019-01-17T01:09:27.121Z,0.00
2019-01-17T01:10:27.095Z,0.00
2019-01-17T01:11:27.070Z,0.00
2019-01-17T01:12:27.051Z,0.00
2019-01-17T01:13:27.028Z,0.00
2019-01-17T01:14:26.999Z,0.00
2019-01-17T01:15:26.983Z,0.00
2019-01-17T01:16:26.954Z,0.00
2019-01-17T01:17:26.929Z,0.00
2019-01-17T01:18:26.913Z,0.00
2019-01-17T01:19:26.891Z,0.00
2019-01-17T01:20:26.867Z,0.00
2019-01-17T01:21:26.836Z,0.00
2019-01-17T01:22:26.813Z,0.00
2019-01-17T01:23:26.791Z,0.00
2019-01-17T01:24:26.768Z,0.00
2019-01-17T01:25:26.749Z,0.00
2019-01-17T01:26:26.727Z,0.00
2019-01-17T01:27:26.698Z,0.00
2019-01-17T01:28:26.682Z,0.00
2019-01-17T01:29:26.650Z,0.00
2019-01-17T01:30:26.635Z,0.00
2019-01-17T01:31:26.605Z,0.00
2019-01-17T01:32:26.589Z,0.00
2019-01-17T01:33:26.557Z,0.00
2019-01-17T01:34:26.535Z,0.00
2019-01-17T01:35:26.512Z,0.00
2019-01-17T01:36:26.496Z,0.00
2019-01-17T01:37:26.467Z,0.00
2019-01-17T01:38:26.442Z,0.00
2019-01-17T01:39:26.424Z,0.00
2019-01-17T01:40:26.395Z,0.00
2019-01-17T01:41:26.379Z,0.00
2019-01-17T01:42:26.354Z,0.00
2019-01-17T01:43:26.344Z,0.00
2019-01-17T01:44:26.309Z,0.00
2019-01-17T01:45:26.284Z,0.00
2019-01-17T01:46:26.255Z,0.00
2019-01-17T01:47:26.233Z,0.00
2019-01-17T01:48:26.217Z,0.00
2019-01-17T01:49:26.191Z,0.00
2019-01-17T01:50:26.163Z,0.00
2019-01-17T01:51:26.140Z,0.00
2019-01-17T01:52:26.125Z,0.00
2019-01-17T01:53:26.099Z,0.00
2019-01-17T01:54:26.070Z,0.00
2019-01-17T01:55:26.053Z,0.00
2019-01-17T01:56:26.032Z,0.00
2019-01-17T01:57:26.007Z,0.00
2019-01-17T01:58:25.977Z,0.00
2019-01-17T01:59:25.955Z,0.00
2019-01-17T02:00:25.933Z,0.00
2019-01-17T02:01:25.917Z,0.00
2019-01-17T02:02:25.892Z,0.00
2019-01-17T02:03:25.865Z,0.00
2019-01-17T02:04:25.840Z,0.00
2019-01-17T02:05:25.821Z,0.00
2019-01-17T02:06:25.792Z,0.00
2019-01-17T02:07:25.776Z,0.00
2019-01-17T02:08:25.754Z,0.00
2019-01-17T02:09:25.739Z,0.00
2019-01-17T02:10:25.699Z,0.00
2019-01-17T02:11:25.683Z,0.00
2019-01-17T02:12:25.655Z,0.00
2019-01-17T02:13:25.631Z,0.00
2019-01-17T02:14:25.614Z,0.00
2019-01-17T02:15:25.589Z,0.00
2019-01-17T02:16:25.563Z,0.00
2019-01-17T02:17:25.545Z,0.00
2019-01-17T02:18:25.518Z,0.00
2019-01-17T02:19:25.496Z,0.00
2019-01-17T02:20:25.481Z,0.00
2019-01-17T02:21:25.462Z,0.00
2019-01-17T02:22:25.423Z,0.00
2019-01-17T02:23:25.407Z,0.00
2019-01-17T02:24:28.560Z,0.00
2019-01-17T02:25:25.356Z,0.00
2019-01-17T02:26:25.331Z,0.00
2019-01-17T02:27:25.308Z,0.00
2019-01-17T02:28:25.283Z,0.00
2019-01-17T02:29:25.267Z,0.00
2019-01-17T02:30:25.241Z,0.00
2019-01-17T02:31:25.217Z,0.00
2019-01-17T02:32:25.201Z,0.00
2019-01-17T02:33:25.176Z,0.00
2019-01-17T02:34:25.155Z,0.00
2019-01-17T02:35:25.132Z,0.00
2019-01-17T02:36:25.109Z,0.00
2019-01-17T02:37:25.076Z,0.00
2019-01-17T02:38:25.054Z,0.00
2019-01-17T02:39:25.040Z,0.00
2019-01-17T02:40:25.017Z,0.00
2019-01-17T02:41:24.991Z,0.00
2019-01-17T02:42:24.969Z,0.00
2019-01-17T02:43:24.945Z,0.00
2019-01-17T02:44:24.921Z,0.00
2019-01-17T02:45:24.901Z,0.00
2019-01-17T02:46:24.870Z,0.00
2019-01-17T02:47:24.848Z,0.00
2019-01-17T02:48:24.828Z,0.00
2019-01-17T02:49:24.808Z,0.00
2019-01-17T02:50:24.778Z,0.00
2019-01-17T02:51:24.761Z,0.00
2019-01-17T02:52:24.735Z,0.00
2019-01-17T02:53:24.716Z,0.00
2019-01-17T02:54:24.687Z,0.00
2019-01-17T02:55:24.666Z,0.00
2019-01-17T02:56:24.639Z,0.00
2019-01-17T02:57:24.613Z,0.00
2019-01-17T02:58:24.600Z,0.00
2019-01-17T02:59:24.571Z,0.00
2019-01-17T03:00:24.555Z,0.00
2019-01-17T03:01:24.526Z,0.00
2019-01-17T03:02:24.508Z,0.00
2019-01-17T03:03:24.478Z,0.00
2019-01-17T03:04:24.455Z,0.00
2019-01-17T03:05:24.437Z,0.00
2019-01-17T03:06:24.414Z,0.00
2019-01-17T03:07:24.387Z,0.00
2019-01-17T03:08:24.404Z,0.00
2019-01-17T03:09:24.337Z,0.00
2019-01-17T03:10:24.317Z,0.00
2019-01-17T03:11:24.295Z,0.00
2019-01-17T03:12:24.277Z,0.00
2019-01-17T03:13:24.248Z,0.00
2019-01-17T03:14:24.883Z,0.00
2019-01-17T03:15:24.199Z,0.00
2019-01-17T03:16:24.177Z,0.00
2019-01-17T03:17:24.154Z,0.00
2019-01-17T03:18:24.132Z,0.00
2019-01-17T03:19:24.890Z,0.00
2019-01-17T03:20:24.091Z,0.00
2019-01-17T03:21:24.883Z,0.00
2019-01-17T03:22:24.042Z,0.00
2019-01-17T03:23:24.022Z,0.00
2019-01-17T03:24:23.999Z,0.00
2019-01-17T03:25:23.973Z,0.00
2019-01-17T03:26:23.948Z,0.00
2019-01-17T03:27:23.923Z,0.00
2019-01-17T03:28:23.900Z,0.00
2019-01-17T03:29:23.882Z,0.00
2019-01-17T03:30:23.859Z,0.00
2019-01-17T03:31:23.837Z,0.00
2019-01-17T03:32:23.830Z,0.00
2019-01-17T03:33:23.786Z,0.00
2019-01-17T03:34:23.760Z,0.00
2019-01-17T03:35:23.744Z,0.00
2019-01-17T03:36:23.722Z,0.00
2019-01-17T03:37:23.697Z,0.00
2019-01-17T03:38:23.688Z,0.00
2019-01-17T03:39:23.645Z,0.00
2019-01-17T03:40:23.630Z,0.00
2019-01-17T03:41:23.603Z,0.00
2019-01-17T03:42:23.575Z,0.00
2019-01-17T03:43:23.559Z,0.00
2019-01-17T03:44:23.530Z,0.00
2019-01-17T03:45:23.514Z,0.00
2019-01-17T03:46:23.489Z,0.00
2019-01-17T03:47:23.460Z,0.00
2019-01-17T03:48:23.438Z,0.00
2019-01-17T03:49:23.421Z,0.00
2019-01-17T03:50:23.397Z,0.00
2019-01-17T03:51:23.372Z,0.00
2019-01-17T03:52:23.352Z,0.00
2019-01-17T03:53:23.335Z,0.00
2019-01-17T03:54:23.304Z,0.00
2019-01-17T03:55:23.297Z,0.00
2019-01-17T03:56:23.257Z,0.00
2019-01-17T03:57:23.244Z,0.00
2019-01-17T03:58:23.214Z,0.00
2019-01-17T03:59:23.190Z,0.00
2019-01-17T04:00:23.173Z,0.00
2019-01-17T04:01:23.144Z,0.00
2019-01-17T04:02:23.112Z,0.00
2019-01-17T04:03:23.090Z,0.00
2019-01-17T04:04:23.074Z,0.00
2019-01-17T04:05:23.049Z,0.00
2019-01-17T04:06:23.020Z,0.00
2019-01-17T04:07:23.006Z,0.00
2019-01-17T04:08:22.979Z,0.00
2019-01-17T04:09:22.953Z,0.00
2019-01-17T04:10:22.928Z,0.00
2019-01-17T04:11:22.907Z,0.00
2019-01-17T04:12:22.888Z,0.00
2019-01-17T04:13:22.864Z,0.00
2019-01-17T04:14:22.842Z,0.00
2019-01-17T04:15:22.821Z,0.00
2019-01-17T04:16:22.792Z,0.00
2019-01-17T04:17:22.774Z,0.00
2019-01-17T04:18:22.748Z,0.00
2019-01-17T04:19:22.724Z,0.00
2019-01-17T04:20:22.713Z,0.00
2019-01-17T04:21:22.677Z,0.00
2019-01-17T04:22:22.672Z,0.00
2019-01-17T04:23:22.640Z,0.00
2019-01-17T04:24:22.605Z,0.00
2019-01-17T04:25:22.590Z,0.00
2019-01-17T04:26:22.564Z,0.00
2019-01-17T04:27:22.541Z,0.00
2019-01-17T04:28:22.512Z,0.00
2019-01-17T04:29:22.497Z,0.00
2019-01-17T04:30:22.467Z,0.00
2019-01-17T04:31:22.453Z,0.00
2019-01-17T04:32:22.428Z,0.00
2019-01-17T04:33:22.405Z,0.00
2019-01-17T04:34:22.374Z,0.00
2019-01-17T04:35:22.351Z,0.00
2019-01-17T04:36:22.332Z,0.00
2019-01-17T04:37:22.306Z,0.00
2019-01-17T04:38:22.281Z,0.00
2019-01-17T04:39:22.272Z,0.00
2019-01-17T04:40:22.243Z,0.00
2019-01-17T04:41:22.209Z,0.00
2019-01-17T04:42:22.195Z,0.00
2019-01-17T04:43:22.165Z,0.00
2019-01-17T04:44:22.147Z,0.00
2019-01-17T04:45:22.123Z,0.00
2019-01-17T04:46:22.101Z,0.00
2019-01-17T04:47:22.072Z,0.00
2019-01-17T04:48:22.047Z,0.00
2019-01-17T04:49:22.036Z,0.00
2019-01-17T04:50:22.008Z,0.00
2019-01-17T04:51:21.983Z,0.00
2019-01-17T04:52:21.961Z,0.00
2019-01-17T04:53:21.937Z,0.00
2019-01-17T04:54:21.906Z,0.00
2019-01-17T04:55:21.883Z,0.00
2019-01-17T04:56:21.875Z,0.00
2019-01-17T04:57:21.839Z,0.00
2019-01-17T04:58:21.812Z,0.00
2019-01-17T04:59:21.790Z,0.00
2019-01-17T05:00:21.774Z,0.00
2019-01-17T05:01:21.743Z,0.00
2019-01-17T05:02:21.720Z,0.00
2019-01-17T05:03:21.699Z,0.00
2019-01-17T05:04:21.676Z,0.00
2019-01-17T05:05:21.649Z,0.00
2019-01-17T05:06:21.637Z,0.00
2019-01-17T05:07:21.609Z,0.00
2019-01-17T05:08:21.590Z,0.00
2019-01-17T05:09:21.561Z,0.00
2019-01-17T05:10:21.553Z,0.00
2019-01-17T05:11:21.514Z,0.00
2019-01-17T05:12:21.491Z,0.00
2019-01-17T05:13:21.469Z,0.00
2019-01-17T05:14:21.437Z,0.00
2019-01-17T05:15:21.422Z,0.00
2019-01-17T05:16:21.396Z,0.00
2019-01-17T05:17:21.373Z,0.00
2019-01-17T05:18:21.344Z,0.00
2019-01-17T05:19:21.330Z,0.00
2019-01-17T05:20:21.306Z,0.00
2019-01-17T05:21:21.281Z,0.00
2019-01-17T05:22:21.258Z,0.00
2019-01-17T05:23:21.231Z,0.00
2019-01-17T05:24:21.202Z,0.00
2019-01-17T05:25:21.182Z,0.00
2019-01-17T05:26:21.914Z,0.00
2019-01-17T05:27:21.147Z,0.00
2019-01-17T05:28:21.112Z,0.00
2019-01-17T05:29:21.086Z,0.00
2019-01-17T05:30:21.075Z,0.00
2019-01-17T05:31:21.048Z,0.00
2019-01-17T05:32:21.023Z,0.00
2019-01-17T05:33:21.006Z,0.00
2019-01-17T05:34:20.968Z,0.00
2019-01-17T05:35:20.946Z,0.00
2019-01-17T05:36:20.923Z,0.00
2019-01-17T05:37:20.900Z,0.00
2019-01-17T05:38:20.891Z,0.00
2019-01-17T05:39:20.849Z,0.00
2019-01-17T05:40:20.828Z,0.00
2019-01-17T05:41:20.803Z,0.00
2019-01-17T05:42:20.790Z,0.00
2019-01-17T05:43:20.764Z,0.00
2019-01-17T05:44:20.736Z,0.00
2019-01-17T05:45:20.716Z,0.00
2019-01-17T05:46:20.691Z,0.00
2019-01-17T05:47:20.671Z,0.00
2019-01-17T05:48:20.639Z,0.00
2019-01-17T05:49:20.621Z,0.00
2019-01-17T05:50:20.596Z,0.00
2019-01-17T05:51:20.573Z,0.00
2019-01-17T05:52:20.560Z,0.00
2019-01-17T05:53:20.525Z,0.00
2019-01-17T05:54:20.506Z,0.00
2019-01-17T05:55:20.480Z,0.00
2019-01-17T05:56:20.457Z,0.00
2019-01-17T05:57:20.432Z,0.00
2019-01-17T05:58:20.412Z,0.00
2019-01-17T05:59:20.387Z,0.00
2019-01-17T06:00:20.364Z,0.00
2019-01-17T06:01:20.333Z,0.00
2019-01-17T06:02:20.309Z,0.00
2019-01-17T06:03:20.284Z,0.00
2019-01-17T06:04:20.265Z,0.00
2019-01-17T06:05:20.243Z,0.00
2019-01-17T06:06:20.221Z,0.00
2019-01-17T06:07:20.192Z,0.00
2019-01-17T06:08:20.173Z,0.00
2019-01-17T06:09:20.155Z,0.00
2019-01-17T06:10:20.122Z,0.00
2019-01-17T06:11:20.102Z,0.00
2019-01-17T06:12:20.074Z,0.00
2019-01-17T06:13:20.048Z,0.00
2019-01-17T06:14:20.031Z,0.00
2019-01-17T06:15:20.009Z,0.00
2019-01-17T06:16:19.977Z,0.00
2019-01-17T06:17:19.961Z,0.00
2019-01-17T06:18:19.936Z,0.00
2019-01-17T06:19:19.907Z,0.00
2019-01-17T06:20:19.888Z,0.00
2019-01-17T06:21:19.859Z,0.00
2019-01-17T06:22:19.843Z,0.00
2019-01-17T06:23:19.819Z,0.00
2019-01-17T06:24:19.791Z,0.00
2019-01-17T06:25:27.810Z,0.00
2019-01-17T06:26:19.751Z,0.00
2019-01-17T06:27:19.717Z,0.00
2019-01-17T06:28:19.698Z,0.00
2019-01-17T06:29:19.676Z,0.00
2019-01-17T06:30:19.654Z,0.00
2019-01-17T06:31:19.625Z,0.00
2019-01-17T06:32:19.608Z,0.00
2019-01-17T06:33:19.576Z,0.00
2019-01-17T06:34:19.557Z,0.00
2019-01-17T06:35:19.535Z,0.00
2019-01-17T06:36:19.506Z,0.00
2019-01-17T06:37:19.487Z,0.00
2019-01-17T06:38:19.458Z,0.00
2019-01-17T06:39:19.442Z,0.00
2019-01-17T06:40:19.416Z,0.00
2019-01-17T06:41:19.395Z,0.00
2019-01-17T06:42:19.368Z,0.00
2019-01-17T06:43:19.340Z,0.00
2019-01-17T06:44:20.538Z,0.00
2019-01-17T06:45:19.298Z,0.00
2019-01-17T06:46:19.268Z,0.00
2019-01-17T06:47:19.250Z,0.00
2019-01-17T06:48:19.220Z,0.00
2019-01-17T06:49:19.197Z,4.00
2019-01-17T06:50:19.181Z,4.00
2019-01-17T06:51:19.156Z,4.00
2019-01-17T06:52:19.129Z,4.00
2019-01-17T06:53:19.100Z,8.00
2019-01-17T06:54:19.086Z,4.00
2019-01-17T06:55:19.065Z,8.00
2019-01-17T06:56:19.031Z,4.00
2019-01-17T06:57:19.009Z,8.00
2019-01-17T06:58:18.984Z,12.00
2019-01-17T06:59:18.967Z,12.00
2019-01-17T07:00:18.938Z,16.00
2019-01-17T07:01:18.913Z,16.00
2019-01-17T07:02:18.888Z,12.00
2019-01-17T07:03:18.868Z,16.00
2019-01-17T07:04:18.843Z,20.00
2019-01-17T07:05:18.824Z,28.00
2019-01-17T07:06:18.791Z,32.00
2019-01-17T07:07:18.781Z,28.00
2019-01-17T07:08:18.749Z,32.00
2019-01-17T07:09:18.727Z,36.00
2019-01-17T07:10:18.699Z,44.00
2019-01-17T07:11:18.676Z,48.00
2019-01-17T07:12:18.658Z,48.00
2019-01-17T07:13:18.629Z,48.00
2019-01-17T07:14:18.607Z,48.00
2019-01-17T07:15:18.581Z,56.00
2019-01-17T07:16:18.562Z,68.00
2019-01-17T07:17:18.541Z,72.00
2019-01-17T07:18:18.507Z,72.00
2019-01-17T07:19:18.492Z,72.00
2019-01-17T07:20:18.462Z,88.00
2019-01-17T07:21:18.437Z,88.00
2019-01-17T07:22:18.422Z,108.00
2019-01-17T07:23:18.390Z,108.00
2019-01-17T07:24:18.368Z,108.00
2019-01-17T07:25:18.348Z,112.00
2019-01-17T07:26:18.326Z,116.00
2019-01-17T07:27:18.304Z,128.00
2019-01-17T07:28:18.278Z,120.00
2019-01-17T07:29:18.253Z,164.00
2019-01-17T07:30:18.226Z,156.00
2019-01-17T07:31:18.209Z,128.00
2019-01-17T07:32:18.177Z,128.00
2019-01-17T07:33:18.151Z,144.00
2019-01-17T07:34:18.131Z,196.00
2019-01-17T07:35:18.111Z,144.00
2019-01-17T07:36:18.090Z,136.00
2019-01-17T07:37:18.062Z,132.00
2019-01-17T07:38:18.039Z,124.00
2019-01-17T07:39:18.015Z,144.00
2019-01-17T07:40:17.991Z,164.00
2019-01-17T07:41:17.964Z,176.00
2019-01-17T07:42:17.939Z,212.00
2019-01-17T07:43:17.916Z,172.00
2019-01-17T07:44:17.894Z,220.00
2019-01-17T07:45:17.872Z,244.00
2019-01-17T07:46:17.843Z,248.00
2019-01-17T07:47:17.822Z,252.00
2019-01-17T07:48:17.806Z,220.00
2019-01-17T07:49:17.780Z,260.00
2019-01-17T07:50:17.758Z,304.00
2019-01-17T07:51:17.732Z,484.00
2019-01-17T07:52:17.704Z,412.00
2019-01-17T07:53:17.687Z,468.00
2019-01-17T07:54:17.662Z,496.00
2019-01-17T07:55:17.636Z,568.00
2019-01-17T07:56:17.620Z,556.00
2019-01-17T07:57:17.591Z,500.00
2019-01-17T07:58:17.568Z,392.00
2019-01-17T07:59:17.547Z,496.00
2019-01-17T08:00:17.517Z,504.00
2019-01-17T08:01:17.492Z,508.00
2019-01-17T08:02:17.488Z,540.00
2019-01-17T08:03:17.445Z,612.00
2019-01-17T08:04:17.423Z,680.00
2019-01-17T08:05:17.398Z,752.00
2019-01-17T08:06:17.372Z,788.00
2019-01-17T08:07:17.356Z,832.00
2019-01-17T08:08:17.328Z,852.00
2019-01-17T08:09:17.302Z,872.00
2019-01-17T08:10:17.280Z,1212.00
2019-01-17T08:11:17.254Z,1208.00
2019-01-17T08:12:17.233Z,1272.00
2019-01-17T08:13:17.206Z,1316.00
2019-01-17T08:14:17.183Z,1400.00
2019-01-17T08:15:17.163Z,1456.00
2019-01-17T08:16:17.139Z,1484.00
2019-01-17T08:17:17.116Z,1444.00
2019-01-17T08:18:18.811Z,1520.00
2019-01-17T08:19:17.074Z,1384.00
2019-01-17T08:20:17.048Z,1528.00
2019-01-17T08:21:17.026Z,1832.00
2019-01-17T08:22:17.001Z,2024.00
2019-01-17T08:23:16.978Z,2300.00
2019-01-17T08:24:16.950Z,2140.00
2019-01-17T08:25:16.930Z,2288.00
2019-01-17T08:26:16.908Z,2236.00
2019-01-17T08:27:16.881Z,2056.00
2019-01-17T08:28:16.858Z,2208.00
2019-01-17T08:29:16.839Z,1792.00
2019-01-17T08:30:16.810Z,1984.00
2019-01-17T08:31:16.785Z,2168.00
2019-01-17T08:32:16.759Z,1992.00
2019-01-17T08:33:16.737Z,1916.00
2019-01-17T08:34:16.718Z,2044.00
2019-01-17T08:35:16.695Z,1996.00
2019-01-17T08:36:16.673Z,1860.00
2019-01-17T08:37:16.650Z,1700.00
2019-01-17T08:38:16.619Z,1708.00
2019-01-17T08:39:16.603Z,1784.00
2019-01-17T08:40:20.294Z,1876.00
2019-01-17T08:41:16.557Z,1896.00
2019-01-17T08:42:16.534Z,1988.00
2019-01-17T08:43:16.511Z,1960.00
2019-01-17T08:44:16.483Z,2084.00
2019-01-17T08:45:16.456Z,2040.00
2019-01-17T08:46:16.442Z,2048.00
2019-01-17T08:47:16.414Z,2696.00
2019-01-17T08:48:16.392Z,3564.00
2019-01-17T08:49:16.363Z,3716.00
2019-01-17T08:50:16.339Z,3268.00
2019-01-17T08:51:16.327Z,2668.00
2019-01-17T08:52:16.293Z,2572.00
2019-01-17T08:53:16.268Z,2908.00
2019-01-17T08:54:16.255Z,2712.00
2019-01-17T08:55:16.225Z,3460.00
2019-01-17T08:56:16.198Z,3860.00
2019-01-17T08:57:16.183Z,3440.00
2019-01-17T08:58:16.163Z,3580.00
2019-01-17T08:59:16.131Z,3356.00
2019-01-17T09:00:16.105Z,2988.00
2019-01-17T09:01:16.088Z,2572.00
2019-01-17T09:02:16.063Z,2372.00
2019-01-17T09:03:16.045Z,2512.00
2019-01-17T09:04:16.013Z,3536.00
2019-01-17T09:05:15.991Z,3444.00
2019-01-17T09:06:15.972Z,3352.00
2019-01-17T09:07:15.949Z,3776.00
2019-01-17T09:08:15.924Z,3972.00
2019-01-17T09:09:15.901Z,3732.00
2019-01-17T09:10:15.880Z,3344.00
2019-01-17T09:11:15.854Z,3148.00
2019-01-17T09:12:15.825Z,3156.00
2019-01-17T09:13:15.803Z,2936.00
2019-01-17T09:14:15.795Z,2704.00
2019-01-17T09:15:15.761Z,2452.00
2019-01-17T09:16:15.739Z,2388.00
2019-01-17T09:17:15.717Z,2484.00
2019-01-17T09:18:15.690Z,2476.00
2019-01-17T09:19:15.668Z,2576.00
2019-01-17T09:20:15.643Z,2572.00
2019-01-17T09:21:15.626Z,2432.00
2019-01-17T09:22:15.594Z,2216.00
2019-01-17T09:23:15.572Z,2208.00
2019-01-17T09:24:15.553Z,2260.00
2019-01-17T09:25:15.530Z,2136.00
2019-01-17T09:26:15.508Z,2036.00
2019-01-17T09:27:15.482Z,1916.00
2019-01-17T09:28:15.460Z,2220.00
2019-01-17T09:29:15.429Z,2284.00
2019-01-17T09:30:15.407Z,2088.00
2019-01-17T09:31:15.387Z,2172.00
2019-01-17T09:32:15.368Z,2336.00
2019-01-17T09:33:15.336Z,2572.00
2019-01-17T09:34:15.313Z,2944.00
2019-01-17T09:35:15.291Z,3416.00
2019-01-17T09:36:15.269Z,3796.00
2019-01-17T09:37:15.247Z,4164.00
2019-01-17T09:38:15.223Z,4848.00
2019-01-17T09:39:15.198Z,4636.00
2019-01-17T09:40:15.183Z,4236.00
2019-01-17T09:41:15.153Z,3960.00
2019-01-17T09:42:15.134Z,3656.00
2019-01-17T09:43:15.111Z,3584.00
2019-01-17T09:44:15.083Z,3780.00
2019-01-17T09:45:15.056Z,3964.00
2019-01-17T09:46:15.039Z,4076.00
2019-01-17T09:47:15.017Z,4172.00
2019-01-17T09:48:14.995Z,4268.00
2019-01-17T09:49:14.967Z,4216.00
2019-01-17T09:50:14.945Z,4292.00
2019-01-17T09:51:14.921Z,4224.00
2019-01-17T09:52:14.907Z,3844.00
2019-01-17T09:53:14.882Z,3712.00
2019-01-17T09:54:14.851Z,3396.00
2019-01-17T09:55:14.833Z,2968.00
2019-01-17T09:56:15.059Z,2796.00
2019-01-17T09:57:14.780Z,2772.00
2019-01-17T09:58:14.758Z,2788.00
2019-01-17T09:59:14.742Z,3200.00
2019-01-17T10:00:14.713Z,3684.00
2019-01-17T10:01:14.688Z,4016.00
2019-01-17T10:02:14.666Z,3512.00
2019-01-17T10:03:14.643Z,2908.00
2019-01-17T10:04:14.621Z,3244.00
2019-01-17T10:05:14.596Z,4164.00
2019-01-17T10:06:14.570Z,4136.00
2019-01-17T10:07:14.550Z,4120.00
2019-01-17T10:08:14.531Z,4576.00
2019-01-17T10:09:14.509Z,3880.00
2019-01-17T10:10:14.482Z,4048.00
2019-01-17T10:11:14.464Z,4180.00
2019-01-17T10:12:14.438Z,4948.00
2019-01-17T10:13:14.414Z,6692.00
2019-01-17T10:14:14.389Z,7052.00
2019-01-17T10:15:14.366Z,7592.00
2019-01-17T10:16:14.344Z,7804.00
2019-01-17T10:17:14.553Z,8744.00
2019-01-17T10:18:14.296Z,11160.00
2019-01-17T10:19:14.278Z,12700.00
2019-01-17T10:20:14.251Z,12824.00
2019-01-17T10:21:14.229Z,11688.00
2019-01-17T10:22:14.207Z,12304.00
2019-01-17T10:23:14.191Z,11244.00
2019-01-17T10:24:14.162Z,9996.00
2019-01-17T10:25:14.143Z,9856.00
2019-01-17T10:26:14.111Z,9948.00
2019-01-17T10:27:14.095Z,7500.00
2019-01-17T10:28:14.069Z,6768.00
2019-01-17T10:29:14.056Z,6528.00
2019-01-17T10:30:14.032Z,7420.00
2019-01-17T10:31:14.003Z,6024.00
2019-01-17T10:32:13.989Z,5288.00
2019-01-17T10:33:13.957Z,4224.00
2019-01-17T10:34:13.942Z,4012.00
2019-01-17T10:35:13.918Z,4020.00
2019-01-17T10:36:13.894Z,3520.00
2019-01-17T10:37:13.868Z,4464.00
2019-01-17T10:38:13.850Z,6344.00
2019-01-17T10:39:13.833Z,8684.00
2019-01-17T10:40:13.801Z,9292.00
2019-01-17T10:41:13.797Z,8956.00
2019-01-17T10:42:13.756Z,10032.00
2019-01-17T10:43:13.734Z,10160.00
2019-01-17T10:44:13.718Z,12064.00
2019-01-17T10:45:13.700Z,12148.00
2019-01-17T10:46:13.670Z,15556.00
2019-01-17T10:47:13.651Z,12356.00
2019-01-17T10:48:13.630Z,14084.00
2019-01-17T10:49:13.608Z,9192.00
2019-01-17T10:50:13.579Z,6032.00
2019-01-17T10:51:13.563Z,4716.00
2019-01-17T10:52:13.540Z,6532.00
2019-01-17T10:53:13.517Z,13216.00
2019-01-17T10:54:13.489Z,33408.00
2019-01-17T10:55:13.499Z,42624.00
2019-01-17T10:56:13.463Z,43584.00
2019-01-17T10:57:13.626Z,46720.00
2019-01-17T10:58:13.401Z,44800.00
2019-01-17T10:59:13.386Z,47648.00
2019-01-17T11:00:13.360Z,44032.00
2019-01-17T11:01:13.343Z,47200.00
2019-01-17T11:02:13.320Z,46432.00
2019-01-17T11:03:13.295Z,47744.00
2019-01-17T11:04:13.272Z,47968.00
2019-01-17T11:05:13.256Z,47296.00
2019-01-17T11:06:13.262Z,45024.00
2019-01-17T11:07:13.268Z,8040.00
2019-01-17T11:08:13.217Z,6928.00
2019-01-17T11:09:13.176Z,39776.00
2019-01-17T11:10:13.146Z,38944.00
2019-01-17T11:11:13.136Z,33152.00
2019-01-17T11:12:13.115Z,17084.00
2019-01-17T11:13:13.095Z,31808.00
2019-01-17T11:14:13.070Z,11860.00
2019-01-17T11:15:13.054Z,8132.00
2019-01-17T11:16:13.026Z,6884.00
2019-01-17T11:17:13.013Z,8436.00
2019-01-17T11:18:12.986Z,7452.00
2019-01-17T11:19:12.969Z,7244.00
2019-01-17T11:20:12.947Z,8664.00
2019-01-17T11:21:12.927Z,9052.00
2019-01-17T11:22:12.911Z,8116.00
2019-01-17T11:23:12.886Z,5696.00
2019-01-17T11:24:12.866Z,5780.00
2019-01-17T11:25:12.844Z,4912.00
2019-01-17T11:26:12.830Z,3372.00
2019-01-17T11:27:12.808Z,2836.00
2019-01-17T11:28:12.782Z,3064.00
2019-01-17T11:29:12.766Z,3200.00
2019-01-17T11:30:12.739Z,3752.00
2019-01-17T11:31:12.718Z,4420.00
2019-01-17T11:32:12.702Z,3764.00
2019-01-17T11:33:12.680Z,3796.00
2019-01-17T11:34:12.658Z,3688.00
2019-01-17T11:35:12.631Z,3828.00
2019-01-17T11:36:12.612Z,3468.00
2019-01-17T11:37:12.589Z,3492.00
2019-01-17T11:38:12.570Z,2736.00
2019-01-17T11:39:12.548Z,2720.00
2019-01-17T11:40:12.519Z,3088.00
2019-01-17T11:41:12.497Z,2824.00
2019-01-17T11:42:12.479Z,2716.00
2019-01-17T11:43:12.461Z,2884.00
2019-01-17T11:44:12.433Z,2644.00
2019-01-17T11:45:12.407Z,2624.00
2019-01-17T11:46:12.388Z,2776.00
2019-01-17T11:47:12.368Z,3496.00
2019-01-17T11:48:12.343Z,3108.00
2019-01-17T11:49:12.329Z,2884.00
2019-01-17T11:50:12.302Z,2668.00
2019-01-17T11:51:12.280Z,3132.00
2019-01-17T11:52:12.260Z,4240.00
2019-01-17T11:53:12.227Z,4864.00
2019-01-17T11:54:12.211Z,6248.00
2019-01-17T11:55:12.183Z,9736.00
2019-01-17T11:56:12.167Z,11888.00
2019-01-17T11:57:12.138Z,10608.00
2019-01-17T11:58:12.126Z,15708.00
2019-01-17T11:59:12.093Z,16132.00
2019-01-17T12:00:12.074Z,15844.00
2019-01-17T12:01:12.047Z,16992.00
2019-01-17T12:02:12.031Z,16640.00
2019-01-17T12:03:12.015Z,16396.00
2019-01-17T12:04:11.982Z,14916.00
2019-01-17T12:05:11.961Z,11884.00
2019-01-17T12:06:11.941Z,13536.00
2019-01-17T12:07:11.919Z,9512.00
2019-01-17T12:08:11.900Z,9540.00
2019-01-17T12:09:11.877Z,8616.00
2019-01-17T12:10:11.862Z,8612.00
2019-01-17T12:11:11.846Z,9876.00
2019-01-17T12:12:11.824Z,11664.00
2019-01-17T12:13:17.331Z,13496.00
2019-01-17T12:14:11.779Z,14744.00
2019-01-17T12:15:11.756Z,20192.00
2019-01-17T12:16:11.739Z,10836.00
2019-01-17T12:17:11.718Z,9744.00
2019-01-17T12:18:11.693Z,9380.00
2019-01-17T12:19:11.718Z,5684.00
2019-01-17T12:20:11.655Z,3944.00
2019-01-17T12:21:11.634Z,5824.00
2019-01-17T12:22:11.614Z,5608.00
2019-01-17T12:23:11.595Z,5604.00
2019-01-17T12:24:11.578Z,6520.00
2019-01-17T12:25:11.549Z,7168.00
2019-01-17T12:26:11.530Z,7164.00
2019-01-17T12:27:11.514Z,5964.00
2019-01-17T12:28:11.485Z,6340.00
2019-01-17T12:29:11.463Z,4624.00
2019-01-17T12:30:11.449Z,4808.00
2019-01-17T12:31:11.428Z,3524.00
2019-01-17T12:32:11.408Z,3136.00
2019-01-17T12:33:11.382Z,2624.00
2019-01-17T12:34:11.363Z,3224.00
2019-01-17T12:35:11.335Z,4076.00
2019-01-17T12:36:11.312Z,3840.00
2019-01-17T12:37:11.295Z,3976.00
2019-01-17T12:38:11.271Z,3440.00
2019-01-17T12:39:11.252Z,3544.00
2019-01-17T12:40:11.228Z,4848.00
2019-01-17T12:41:11.208Z,4920.00
2019-01-17T12:42:11.186Z,5104.00
2019-01-17T12:43:11.166Z,5496.00
2019-01-17T12:44:11.138Z,5968.00
2019-01-17T12:45:11.115Z,7564.00